AF139 LIRF-HECA
Flight info
| Callsign | AF139 |
|---|---|
| Flight time | 2h 48m |
| Altitude | 19000 |
| Route | PEPIX L50 UNIXO/N0479F390 DCT TAGEL DCT DIRED DCT LEVDI DCT NIMAN DCT ARLOS UN4 SALUN N705 BOPIX N710 TAKRI M720 FYM W613 ALPID W8 CVO |
| Aircraft | B789/H-SDE1E2E3FGHIJ2J3J4J5M1RWXY/LB1D1 |
Departure
| Time | 2026-05-06 11:50 |
|---|---|
| Airport | Rome–Fiumicino Leonardo da Vinci International Airport (LIRF) |
Arrival
| Time | 2026-05-06 14:38 |
|---|---|
| Airport | Cairo International Airport (HECA) |
| Time | Latitude | Longitude | Altitude | Speed | Heading |
|---|---|---|---|---|---|
| 2026-05-06 11:36 | 41.79914 | 12.25383 | 23 ft | 0 kts | 258° |
| 2026-05-06 11:42 | 41.79915 | 12.25391 | 23 ft | 4 kts | 258° |
| 2026-05-06 11:42 | 41.79924 | 12.25461 | 27 ft | 4 kts | 274° |
| 2026-05-06 11:42 | 41.79924 | 12.25465 | 27 ft | 0 kts | 285° |
| 2026-05-06 11:42 | 41.79949 | 12.25416 | 24 ft | 18 kts | 316° |
| 2026-05-06 11:43 | 41.80048 | 12.25341 | 29 ft | 16 kts | 347° |
| 2026-05-06 11:43 | 41.80173 | 12.25389 | 29 ft | 24 kts | 20° |
| 2026-05-06 11:43 | 41.80306 | 12.25468 | 23 ft | 15 kts | 44° |
| 2026-05-06 11:44 | 41.80379 | 12.25694 | 25 ft | 14 kts | 70° |
| 2026-05-06 11:44 | 41.80413 | 12.25821 | 20 ft | 15 kts | 70° |
| 2026-05-06 11:44 | 41.80444 | 12.25935 | 20 ft | 0 kts | 69° |
| 2026-05-06 11:45 | 41.80469 | 12.26022 | 20 ft | 17 kts | 69° |
| 2026-05-06 11:45 | 41.80474 | 12.26040 | 21 ft | 0 kts | 69° |
| 2026-05-06 11:45 | 41.80474 | 12.26041 | 21 ft | 0 kts | 69° |
| 2026-05-06 11:45 | 41.80483 | 12.26073 | 20 ft | 22 kts | 69° |
| 2026-05-06 11:46 | 41.80604 | 12.26516 | 23 ft | 58 kts | 70° |
| 2026-05-06 11:46 | 41.80707 | 12.26879 | 16 ft | 25 kts | 70° |
| 2026-05-06 11:46 | 41.80785 | 12.27038 | 16 ft | 14 kts | 5° |
| 2026-05-06 11:46 | 41.80857 | 12.27013 | 16 ft | 0 kts | 336° |
| 2026-05-06 11:47 | 41.80904 | 12.26985 | 16 ft | 25 kts | 336° |
| 2026-05-06 11:47 | 41.80948 | 12.26904 | 17 ft | 14 kts | 263° |
| 2026-05-06 11:48 | 41.80923 | 12.26803 | 16 ft | 0 kts | 250° |
| 2026-05-06 11:48 | 41.80922 | 12.26799 | 16 ft | 0 kts | 250° |
| 2026-05-06 11:48 | 41.80922 | 12.26798 | 16 ft | 0 kts | 250° |
| 2026-05-06 11:49 | 41.80904 | 12.26732 | 16 ft | 35 kts | 250° |
| 2026-05-06 11:49 | 41.80723 | 12.26078 | 28 ft | 115 kts | 250° |
| 2026-05-06 11:49 | 41.80375 | 12.24758 | 180 ft | 169 kts | 251° |
| 2026-05-06 11:49 | 41.79895 | 12.23104 | 275 ft | 212 kts | 236° |
| 2026-05-06 11:50 | 41.79086 | 12.21432 | 784 ft | 228 kts | 232° |
| 2026-05-06 11:50 | 41.78047 | 12.19688 | 912 ft | 252 kts | 222° |
| 2026-05-06 11:50 | 41.76767 | 12.18095 | 1679 ft | 243 kts | 216° |
| 2026-05-06 11:50 | 41.75402 | 12.17081 | 2803 ft | 216 kts | 197° |
| 2026-05-06 11:51 | 41.73868 | 12.16785 | 3375 ft | 240 kts | 176° |
| 2026-05-06 11:51 | 41.72168 | 12.17001 | 4297 ft | 246 kts | 181° |
| 2026-05-06 11:51 | 41.70431 | 12.17024 | 5348 ft | 254 kts | 182° |
| 2026-05-06 11:51 | 41.68647 | 12.17072 | 6454 ft | 258 kts | 181° |
| 2026-05-06 11:52 | 41.66833 | 12.17165 | 7429 ft | 265 kts | 181° |
| 2026-05-06 11:52 | 41.64971 | 12.17263 | 8437 ft | 270 kts | 181° |
| 2026-05-06 11:52 | 41.63075 | 12.17353 | 9416 ft | 276 kts | 182° |
| 2026-05-06 11:52 | 41.61138 | 12.17440 | 10305 ft | 284 kts | 182° |
| 2026-05-06 11:53 | 41.59071 | 12.17531 | 10644 ft | 311 kts | 181° |
| 2026-05-06 11:53 | 41.56804 | 12.17636 | 10932 ft | 339 kts | 181° |
| 2026-05-06 11:53 | 41.54370 | 12.17750 | 11511 ft | 353 kts | 181° |
| 2026-05-06 11:53 | 41.51906 | 12.17823 | 12486 ft | 356 kts | 182° |
| 2026-05-06 11:54 | 41.49404 | 12.17877 | 13343 ft | 363 kts | 182° |
| 2026-05-06 11:54 | 41.46865 | 12.17949 | 14193 ft | 367 kts | 181° |
| 2026-05-06 11:54 | 41.44294 | 12.18033 | 15048 ft | 370 kts | 181° |
| 2026-05-06 11:54 | 41.41707 | 12.18112 | 15880 ft | 373 kts | 181° |
| 2026-05-06 11:55 | 41.39098 | 12.18185 | 16695 ft | 377 kts | 181° |
| 2026-05-06 11:55 | 41.36472 | 12.18261 | 17522 ft | 379 kts | 181° |
| 2026-05-06 11:55 | 41.33821 | 12.18339 | 18319 ft | 382 kts | 181° |
| 2026-05-06 11:55 | 41.31142 | 12.18418 | 18886 ft | 389 kts | 181° |
| 2026-05-06 11:56 | 41.28440 | 12.18495 | 18979 ft | 396 kts | 181° |
| 2026-05-06 11:56 | 41.25705 | 12.18578 | 18971 ft | 390 kts | 181° |
| 2026-05-06 11:56 | 41.22990 | 12.18659 | 18979 ft | 390 kts | 181° |
| 2026-05-06 11:56 | 41.20283 | 12.18750 | 18977 ft | 389 kts | 179° |
| 2026-05-06 11:57 | 41.17606 | 12.19397 | 18984 ft | 394 kts | 166° |
| 2026-05-06 11:57 | 41.15067 | 12.20830 | 18993 ft | 400 kts | 153° |
| 2026-05-06 11:57 | 41.12802 | 12.23011 | 18996 ft | 406 kts | 141° |
| 2026-05-06 11:57 | 41.10847 | 12.25498 | 18993 ft | 407 kts | 140° |
| 2026-05-06 11:58 | 41.08813 | 12.28117 | 18992 ft | 407 kts | 139° |
| 2026-05-06 11:58 | 41.06788 | 12.30748 | 18989 ft | 407 kts | 139° |
| 2026-05-06 11:58 | 41.04758 | 12.33365 | 18991 ft | 407 kts | 140° |
| 2026-05-06 11:58 | 41.02717 | 12.35978 | 18991 ft | 407 kts | 140° |
| 2026-05-06 11:59 | 41.00683 | 12.38586 | 18994 ft | 407 kts | 140° |
| 2026-05-06 11:59 | 40.98650 | 12.41200 | 18991 ft | 407 kts | 140° |
| 2026-05-06 11:59 | 40.96640 | 12.43778 | 18988 ft | 407 kts | 140° |
| 2026-05-06 11:59 | 40.94602 | 12.46387 | 18987 ft | 407 kts | 140° |
| 2026-05-06 12:00 | 40.92564 | 12.48994 | 18984 ft | 407 kts | 140° |
| 2026-05-06 12:00 | 40.90529 | 12.51597 | 18989 ft | 407 kts | 140° |
| 2026-05-06 12:00 | 40.88495 | 12.54197 | 18988 ft | 407 kts | 140° |
| 2026-05-06 12:00 | 40.86454 | 12.56800 | 18987 ft | 407 kts | 140° |
| 2026-05-06 12:01 | 40.84415 | 12.59400 | 18986 ft | 407 kts | 140° |
| 2026-05-06 12:01 | 40.82374 | 12.62000 | 18989 ft | 408 kts | 140° |
| 2026-05-06 12:01 | 40.80332 | 12.64600 | 18988 ft | 408 kts | 140° |
| 2026-05-06 12:01 | 40.78286 | 12.67202 | 18987 ft | 408 kts | 140° |
| 2026-05-06 12:02 | 40.76287 | 12.69870 | 18997 ft | 409 kts | 137° |
| 2026-05-06 12:02 | 40.74282 | 12.72536 | 18993 ft | 410 kts | 139° |
| 2026-05-06 12:02 | 40.72249 | 12.75171 | 18991 ft | 410 kts | 139° |
| 2026-05-06 12:02 | 40.70235 | 12.77839 | 18995 ft | 411 kts | 138° |
| 2026-05-06 12:03 | 40.68229 | 12.80533 | 18990 ft | 411 kts | 138° |
| 2026-05-06 12:03 | 40.66213 | 12.83216 | 18994 ft | 411 kts | 139° |
| 2026-05-06 12:03 | 40.64189 | 12.85884 | 18979 ft | 412 kts | 139° |
| 2026-05-06 12:03 | 40.62168 | 12.88554 | 18990 ft | 412 kts | 139° |
| 2026-05-06 12:04 | 40.60176 | 12.91193 | 18997 ft | 412 kts | 139° |
| 2026-05-06 12:04 | 40.58151 | 12.93873 | 18991 ft | 413 kts | 139° |
| 2026-05-06 12:04 | 40.56122 | 12.96550 | 18992 ft | 413 kts | 139° |
| 2026-05-06 12:04 | 40.54093 | 12.99224 | 18994 ft | 414 kts | 139° |
| 2026-05-06 12:05 | 40.52060 | 13.01904 | 18990 ft | 414 kts | 139° |
| 2026-05-06 12:05 | 40.50027 | 13.04582 | 18992 ft | 414 kts | 139° |
| 2026-05-06 12:05 | 40.47994 | 13.07256 | 18992 ft | 414 kts | 139° |
| 2026-05-06 12:05 | 40.45950 | 13.09942 | 18994 ft | 415 kts | 139° |
| 2026-05-06 12:06 | 40.43909 | 13.12622 | 18991 ft | 415 kts | 139° |
| 2026-05-06 12:06 | 40.41866 | 13.15303 | 18984 ft | 415 kts | 139° |
| 2026-05-06 12:06 | 40.39818 | 13.17987 | 18983 ft | 415 kts | 139° |
| 2026-05-06 12:06 | 40.37774 | 13.20663 | 18989 ft | 415 kts | 139° |
| 2026-05-06 12:07 | 40.35757 | 13.23302 | 18987 ft | 415 kts | 139° |
| 2026-05-06 12:07 | 40.33708 | 13.25979 | 18986 ft | 415 kts | 139° |
| 2026-05-06 12:07 | 40.31665 | 13.28648 | 18981 ft | 415 kts | 139° |
| 2026-05-06 12:07 | 40.29641 | 13.31349 | 18990 ft | 416 kts | 134° |
| 2026-05-06 12:08 | 40.27861 | 13.34362 | 18994 ft | 419 kts | 131° |
| 2026-05-06 12:08 | 40.26054 | 13.37361 | 18998 ft | 419 kts | 132° |
| 2026-05-06 12:08 | 40.24239 | 13.40352 | 19006 ft | 419 kts | 132° |
| 2026-05-06 12:08 | 40.22439 | 13.43359 | 19011 ft | 420 kts | 131° |
| 2026-05-06 12:09 | 40.20635 | 13.46385 | 19012 ft | 420 kts | 131° |
| 2026-05-06 12:09 | 40.18831 | 13.49391 | 19012 ft | 421 kts | 132° |
| 2026-05-06 12:09 | 40.17616 | 13.51403 | 19016 ft | 431 kts | 132° |
| 2026-05-06 12:09 | 40.15714 | 13.54551 | 19026 ft | 451 kts | 131° |
| 2026-05-06 12:10 | 40.13753 | 13.57814 | 19028 ft | 459 kts | 131° |
| 2026-05-06 12:10 | 40.11782 | 13.61100 | 19028 ft | 461 kts | 131° |
| 2026-05-06 12:10 | 40.09797 | 13.64390 | 19029 ft | 462 kts | 131° |
| 2026-05-06 12:10 | 40.07795 | 13.67696 | 19025 ft | 463 kts | 131° |
| 2026-05-06 12:11 | 40.05150 | 13.72069 | 19026 ft | 464 kts | 131° |
| 2026-05-06 12:11 | 40.03798 | 13.74306 | 19025 ft | 464 kts | 131° |
| 2026-05-06 12:11 | 40.01796 | 13.77611 | 19026 ft | 463 kts | 132° |
| 2026-05-06 12:11 | 39.99826 | 13.80859 | 19024 ft | 463 kts | 132° |
| 2026-05-06 12:12 | 39.97801 | 13.84192 | 19024 ft | 463 kts | 131° |
| 2026-05-06 12:12 | 39.95828 | 13.87437 | 19025 ft | 462 kts | 132° |
| 2026-05-06 12:12 | 39.93826 | 13.90729 | 19023 ft | 462 kts | 132° |
| 2026-05-06 12:12 | 39.91828 | 13.94009 | 19025 ft | 462 kts | 132° |
| 2026-05-06 12:13 | 39.89827 | 13.97290 | 19021 ft | 462 kts | 132° |
| 2026-05-06 12:13 | 39.87828 | 14.00565 | 19018 ft | 462 kts | 132° |
| 2026-05-06 12:13 | 39.85823 | 14.03846 | 19020 ft | 462 kts | 132° |
| 2026-05-06 12:13 | 39.83814 | 14.07131 | 19014 ft | 462 kts | 132° |
| 2026-05-06 12:14 | 39.81812 | 14.10400 | 19017 ft | 462 kts | 132° |
| 2026-05-06 12:14 | 39.79835 | 14.13626 | 19009 ft | 462 kts | 132° |
| 2026-05-06 12:14 | 39.77829 | 14.16895 | 19015 ft | 462 kts | 132° |
| 2026-05-06 12:14 | 39.75823 | 14.20161 | 19016 ft | 462 kts | 132° |
| 2026-05-06 12:15 | 39.73813 | 14.23431 | 19010 ft | 462 kts | 132° |
| 2026-05-06 12:15 | 39.71803 | 14.26695 | 19010 ft | 462 kts | 132° |
| 2026-05-06 12:15 | 39.69793 | 14.29958 | 19003 ft | 462 kts | 132° |
| 2026-05-06 12:15 | 39.67786 | 14.33211 | 19004 ft | 462 kts | 132° |
| 2026-05-06 12:16 | 39.65770 | 14.36478 | 19004 ft | 462 kts | 132° |
| 2026-05-06 12:16 | 39.63761 | 14.39727 | 19005 ft | 462 kts | 132° |
| 2026-05-06 12:16 | 39.61750 | 14.42978 | 19005 ft | 462 kts | 132° |
| 2026-05-06 12:16 | 39.59740 | 14.46224 | 19003 ft | 462 kts | 132° |
| 2026-05-06 12:17 | 39.57727 | 14.49471 | 18999 ft | 461 kts | 132° |
| 2026-05-06 12:17 | 39.55691 | 14.52674 | 19001 ft | 459 kts | 135° |
| 2026-05-06 12:17 | 39.53581 | 14.55794 | 19002 ft | 461 kts | 134° |
| 2026-05-06 12:17 | 39.51508 | 14.58968 | 19002 ft | 461 kts | 133° |
| 2026-05-06 12:18 | 39.49429 | 14.62124 | 19003 ft | 461 kts | 134° |
| 2026-05-06 12:18 | 39.47325 | 14.65255 | 19001 ft | 461 kts | 134° |
| 2026-05-06 12:18 | 39.45219 | 14.68393 | 19002 ft | 461 kts | 134° |
| 2026-05-06 12:18 | 39.43122 | 14.71544 | 19005 ft | 462 kts | 134° |
| 2026-05-06 12:19 | 39.41023 | 14.74698 | 19004 ft | 461 kts | 134° |
| 2026-05-06 12:19 | 39.38923 | 14.77834 | 19002 ft | 461 kts | 134° |
| 2026-05-06 12:19 | 39.36823 | 14.80963 | 19002 ft | 461 kts | 134° |
| 2026-05-06 12:19 | 39.34747 | 14.84060 | 19001 ft | 461 kts | 134° |
| 2026-05-06 12:20 | 39.32643 | 14.87201 | 19003 ft | 461 kts | 134° |
| 2026-05-06 12:20 | 39.30538 | 14.90334 | 19001 ft | 461 kts | 134° |
| 2026-05-06 12:20 | 39.28433 | 14.93463 | 19002 ft | 461 kts | 134° |
| 2026-05-06 12:20 | 39.26328 | 14.96591 | 19001 ft | 461 kts | 134° |
| 2026-05-06 12:21 | 39.24222 | 14.99719 | 19002 ft | 461 kts | 134° |
| 2026-05-06 12:21 | 39.22117 | 15.02840 | 19001 ft | 461 kts | 134° |
| 2026-05-06 12:21 | 39.20005 | 15.05969 | 19001 ft | 462 kts | 134° |
| 2026-05-06 12:21 | 39.17895 | 15.09091 | 19001 ft | 462 kts | 134° |
| 2026-05-06 12:22 | 39.15778 | 15.12222 | 19005 ft | 462 kts | 134° |
| 2026-05-06 12:22 | 39.13667 | 15.15340 | 19002 ft | 462 kts | 134° |
| 2026-05-06 12:22 | 39.11552 | 15.18460 | 19005 ft | 462 kts | 134° |
| 2026-05-06 12:22 | 39.09435 | 15.21581 | 19005 ft | 462 kts | 134° |
| 2026-05-06 12:23 | 39.07341 | 15.24666 | 19008 ft | 462 kts | 134° |
| 2026-05-06 12:23 | 39.05225 | 15.27778 | 19005 ft | 462 kts | 134° |
| 2026-05-06 12:23 | 39.03103 | 15.30897 | 19003 ft | 464 kts | 134° |
| 2026-05-06 12:23 | 39.00953 | 15.34050 | 19016 ft | 473 kts | 134° |
| 2026-05-06 12:24 | 38.98777 | 15.37245 | 19021 ft | 474 kts | 134° |
| 2026-05-06 12:24 | 38.96605 | 15.40430 | 19019 ft | 475 kts | 134° |
| 2026-05-06 12:24 | 38.94423 | 15.43624 | 19027 ft | 475 kts | 134° |
| 2026-05-06 12:24 | 38.92242 | 15.46811 | 19026 ft | 475 kts | 134° |
| 2026-05-06 12:25 | 38.90059 | 15.50001 | 19025 ft | 475 kts | 134° |
| 2026-05-06 12:25 | 38.87874 | 15.53190 | 19026 ft | 475 kts | 134° |
| 2026-05-06 12:25 | 38.85690 | 15.56374 | 19030 ft | 475 kts | 134° |
| 2026-05-06 12:25 | 38.83500 | 15.59563 | 19024 ft | 475 kts | 134° |
| 2026-05-06 12:26 | 38.81312 | 15.62748 | 19025 ft | 475 kts | 134° |
| 2026-05-06 12:26 | 38.79127 | 15.65924 | 19027 ft | 475 kts | 134° |
| 2026-05-06 12:26 | 38.76940 | 15.69098 | 19026 ft | 475 kts | 134° |
| 2026-05-06 12:26 | 38.74776 | 15.72239 | 19026 ft | 475 kts | 134° |
| 2026-05-06 12:27 | 38.72581 | 15.75420 | 19025 ft | 475 kts | 134° |
| 2026-05-06 12:27 | 38.70386 | 15.78596 | 19028 ft | 475 kts | 134° |
| 2026-05-06 12:27 | 38.68194 | 15.81767 | 19027 ft | 475 kts | 134° |
| 2026-05-06 12:27 | 38.66003 | 15.84933 | 19025 ft | 475 kts | 134° |
| 2026-05-06 12:28 | 38.63811 | 15.88097 | 19026 ft | 475 kts | 134° |
| 2026-05-06 12:28 | 38.61618 | 15.91258 | 19023 ft | 475 kts | 134° |
| 2026-05-06 12:28 | 38.59424 | 15.94419 | 19022 ft | 475 kts | 134° |
| 2026-05-06 12:28 | 38.57237 | 15.97568 | 19026 ft | 475 kts | 134° |
| 2026-05-06 12:29 | 38.55039 | 16.00726 | 19026 ft | 474 kts | 134° |
| 2026-05-06 12:29 | 38.52846 | 16.03875 | 19026 ft | 474 kts | 134° |
| 2026-05-06 12:29 | 38.50655 | 16.07020 | 19025 ft | 474 kts | 134° |
| 2026-05-06 12:29 | 38.48461 | 16.10164 | 19031 ft | 474 kts | 134° |
| 2026-05-06 12:30 | 38.46266 | 16.13307 | 19032 ft | 474 kts | 134° |
| 2026-05-06 12:30 | 38.44071 | 16.16446 | 19039 ft | 474 kts | 134° |
| 2026-05-06 12:30 | 38.41879 | 16.19579 | 19038 ft | 474 kts | 134° |
| 2026-05-06 12:30 | 38.39675 | 16.22725 | 19047 ft | 475 kts | 134° |
| 2026-05-06 12:31 | 38.37470 | 16.25870 | 19049 ft | 474 kts | 134° |
| 2026-05-06 12:31 | 38.35298 | 16.28966 | 19050 ft | 474 kts | 134° |
| 2026-05-06 12:31 | 38.33095 | 16.32102 | 19053 ft | 474 kts | 134° |
| 2026-05-06 12:31 | 38.30897 | 16.35227 | 19052 ft | 474 kts | 134° |
| 2026-05-06 12:32 | 38.28696 | 16.38354 | 19053 ft | 474 kts | 134° |
| 2026-05-06 12:32 | 38.26495 | 16.41478 | 19056 ft | 474 kts | 134° |
| 2026-05-06 12:32 | 38.24294 | 16.44599 | 19057 ft | 473 kts | 134° |
| 2026-05-06 12:32 | 38.22089 | 16.47721 | 19057 ft | 474 kts | 134° |
| 2026-05-06 12:33 | 38.19888 | 16.50837 | 19060 ft | 474 kts | 134° |
| 2026-05-06 12:33 | 38.17688 | 16.53947 | 19062 ft | 474 kts | 134° |
| 2026-05-06 12:33 | 38.15481 | 16.57063 | 19060 ft | 474 kts | 134° |
| 2026-05-06 12:33 | 38.13279 | 16.60170 | 19060 ft | 474 kts | 134° |
| 2026-05-06 12:34 | 38.11071 | 16.63282 | 19061 ft | 474 kts | 134° |
| 2026-05-06 12:34 | 38.08861 | 16.66394 | 19060 ft | 474 kts | 134° |
| 2026-05-06 12:34 | 38.06649 | 16.69505 | 19058 ft | 474 kts | 134° |
| 2026-05-06 12:34 | 38.04436 | 16.72616 | 19061 ft | 475 kts | 134° |
| 2026-05-06 12:35 | 38.02221 | 16.75727 | 19064 ft | 474 kts | 134° |
| 2026-05-06 12:35 | 38.00004 | 16.78836 | 19064 ft | 475 kts | 134° |
| 2026-05-06 12:35 | 37.97787 | 16.81943 | 19064 ft | 475 kts | 134° |
| 2026-05-06 12:35 | 37.95570 | 16.85048 | 19066 ft | 474 kts | 134° |
| 2026-05-06 12:36 | 37.93383 | 16.88105 | 19068 ft | 475 kts | 134° |
| 2026-05-06 12:36 | 37.91163 | 16.91207 | 19063 ft | 475 kts | 134° |
| 2026-05-06 12:36 | 37.88946 | 16.94302 | 19066 ft | 474 kts | 134° |
| 2026-05-06 12:36 | 37.86729 | 16.97394 | 19067 ft | 474 kts | 134° |
| 2026-05-06 12:37 | 37.84521 | 17.00471 | 19360 ft | 470 kts | 134° |
| 2026-05-06 12:37 | 37.82301 | 17.03560 | 19719 ft | 476 kts | 134° |
| 2026-05-06 12:37 | 37.80063 | 17.06671 | 20091 ft | 478 kts | 134° |
| 2026-05-06 12:37 | 37.77815 | 17.09795 | 20451 ft | 482 kts | 134° |
| 2026-05-06 12:38 | 37.75552 | 17.12935 | 20815 ft | 484 kts | 134° |
| 2026-05-06 12:38 | 37.73276 | 17.16091 | 21181 ft | 487 kts | 134° |
| 2026-05-06 12:38 | 37.71011 | 17.19228 | 21568 ft | 490 kts | 134° |
| 2026-05-06 12:38 | 37.68706 | 17.22417 | 21949 ft | 493 kts | 134° |
| 2026-05-06 12:39 | 37.66388 | 17.25622 | 22340 ft | 495 kts | 134° |
| 2026-05-06 12:39 | 37.64058 | 17.28840 | 22734 ft | 498 kts | 134° |
| 2026-05-06 12:39 | 37.61709 | 17.32080 | 23131 ft | 501 kts | 134° |
| 2026-05-06 12:39 | 37.59349 | 17.35333 | 23539 ft | 504 kts | 134° |
| 2026-05-06 12:40 | 37.56979 | 17.38595 | 23898 ft | 506 kts | 134° |
| 2026-05-06 12:40 | 37.54599 | 17.41870 | 24239 ft | 508 kts | 134° |
| 2026-05-06 12:40 | 37.52202 | 17.45164 | 24587 ft | 510 kts | 134° |
| 2026-05-06 12:40 | 37.49798 | 17.48462 | 24934 ft | 512 kts | 134° |
| 2026-05-06 12:41 | 37.47386 | 17.51770 | 25301 ft | 513 kts | 134° |
| 2026-05-06 12:41 | 37.44966 | 17.55084 | 25653 ft | 514 kts | 134° |
| 2026-05-06 12:41 | 37.42541 | 17.58403 | 26013 ft | 515 kts | 134° |
| 2026-05-06 12:41 | 37.40165 | 17.61651 | 26372 ft | 516 kts | 134° |
| 2026-05-06 12:42 | 37.37730 | 17.64976 | 26740 ft | 517 kts | 134° |
| 2026-05-06 12:42 | 37.35293 | 17.68300 | 27122 ft | 517 kts | 134° |
| 2026-05-06 12:42 | 37.32853 | 17.71626 | 27493 ft | 517 kts | 134° |
| 2026-05-06 12:42 | 37.30411 | 17.74951 | 27869 ft | 517 kts | 134° |
| 2026-05-06 12:43 | 37.28002 | 17.78226 | 28251 ft | 517 kts | 134° |
| 2026-05-06 12:43 | 37.25567 | 17.81534 | 28656 ft | 516 kts | 134° |
| 2026-05-06 12:43 | 37.23130 | 17.84842 | 29051 ft | 516 kts | 134° |
| 2026-05-06 12:43 | 37.20679 | 17.88165 | 29093 ft | 520 kts | 134° |
| 2026-05-06 12:44 | 37.15810 | 17.94758 | 29090 ft | 512 kts | 134° |
| 2026-05-06 12:44 | 37.10967 | 18.01299 | 29089 ft | 511 kts | 134° |
| 2026-05-06 12:45 | 37.06132 | 18.07818 | 29092 ft | 511 kts | 134° |
| 2026-05-06 12:46 | 36.98861 | 18.17596 | 29093 ft | 512 kts | 134° |
| 2026-05-06 12:46 | 36.94005 | 18.24111 | 29094 ft | 511 kts | 134° |
| 2026-05-06 12:47 | 36.89153 | 18.30606 | 29098 ft | 511 kts | 134° |
| 2026-05-06 12:47 | 36.84300 | 18.37091 | 29098 ft | 511 kts | 134° |
| 2026-05-06 12:48 | 36.79440 | 18.43572 | 29099 ft | 511 kts | 134° |
| 2026-05-06 12:48 | 36.74579 | 18.50040 | 29098 ft | 511 kts | 134° |
| 2026-05-06 12:49 | 36.69712 | 18.56505 | 29100 ft | 510 kts | 134° |
| 2026-05-06 12:49 | 36.64856 | 18.62941 | 29096 ft | 510 kts | 134° |
| 2026-05-06 12:50 | 36.60031 | 18.69325 | 29100 ft | 509 kts | 134° |
| 2026-05-06 12:50 | 36.55170 | 18.75743 | 29103 ft | 509 kts | 134° |
| 2026-05-06 12:51 | 36.50354 | 18.82201 | 29109 ft | 509 kts | 129° |
| 2026-05-06 12:51 | 36.46601 | 18.89649 | 29118 ft | 508 kts | 121° |
| 2026-05-06 12:52 | 36.43011 | 18.97208 | 29121 ft | 507 kts | 121° |
| 2026-05-06 12:52 | 36.39389 | 19.04735 | 29122 ft | 508 kts | 121° |
| 2026-05-06 12:53 | 36.35781 | 19.12266 | 29122 ft | 507 kts | 121° |
| 2026-05-06 12:53 | 36.32158 | 19.19782 | 29123 ft | 507 kts | 122° |
| 2026-05-06 12:54 | 36.29147 | 19.26028 | 29120 ft | 507 kts | 122° |
| 2026-05-06 12:54 | 36.24919 | 19.34774 | 29126 ft | 509 kts | 122° |
| 2026-05-06 12:55 | 36.21894 | 19.41019 | 29126 ft | 509 kts | 122° |
| 2026-05-06 12:55 | 36.18243 | 19.48538 | 29123 ft | 509 kts | 122° |
| 2026-05-06 12:56 | 36.14592 | 19.56042 | 29125 ft | 509 kts | 122° |
| 2026-05-06 12:56 | 36.10919 | 19.63576 | 29125 ft | 509 kts | 122° |
| 2026-05-06 12:57 | 36.07253 | 19.71077 | 29124 ft | 510 kts | 122° |
| 2026-05-06 12:57 | 36.03580 | 19.78575 | 29124 ft | 510 kts | 122° |
| 2026-05-06 12:58 | 35.99924 | 19.86025 | 29129 ft | 510 kts | 122° |
| 2026-05-06 12:58 | 35.96240 | 19.93512 | 29124 ft | 510 kts | 122° |
| 2026-05-06 12:59 | 35.92613 | 20.01029 | 29134 ft | 510 kts | 118° |
| 2026-05-06 12:59 | 35.89373 | 20.08846 | 29129 ft | 512 kts | 118° |
| 2026-05-06 13:00 | 35.86113 | 20.16640 | 29128 ft | 512 kts | 118° |
| 2026-05-06 13:00 | 35.82854 | 20.24439 | 29125 ft | 511 kts | 118° |
| 2026-05-06 13:01 | 35.79587 | 20.32221 | 29127 ft | 511 kts | 118° |
| 2026-05-06 13:01 | 35.76317 | 20.40002 | 29130 ft | 511 kts | 118° |
| 2026-05-06 13:02 | 35.73062 | 20.47725 | 29125 ft | 511 kts | 118° |
| 2026-05-06 13:02 | 35.69784 | 20.55486 | 29127 ft | 510 kts | 118° |
| 2026-05-06 13:03 | 35.66502 | 20.63238 | 29128 ft | 511 kts | 118° |
| 2026-05-06 13:03 | 35.63208 | 20.71001 | 29124 ft | 511 kts | 118° |
| 2026-05-06 13:04 | 35.59916 | 20.78739 | 29121 ft | 510 kts | 118° |
| 2026-05-06 13:04 | 35.56622 | 20.86464 | 29123 ft | 512 kts | 118° |
| 2026-05-06 13:05 | 35.53342 | 20.94140 | 29130 ft | 511 kts | 118° |
| 2026-05-06 13:05 | 35.50031 | 21.01870 | 29127 ft | 511 kts | 118° |
| 2026-05-06 13:06 | 35.46723 | 21.09575 | 29130 ft | 510 kts | 118° |
| 2026-05-06 13:06 | 35.43409 | 21.17276 | 29129 ft | 510 kts | 118° |
| 2026-05-06 13:07 | 35.40099 | 21.24949 | 29129 ft | 509 kts | 118° |
| 2026-05-06 13:07 | 35.36777 | 21.32634 | 29128 ft | 510 kts | 118° |
| 2026-05-06 13:08 | 35.33454 | 21.40305 | 29128 ft | 510 kts | 118° |
| 2026-05-06 13:08 | 35.30124 | 21.47974 | 29129 ft | 509 kts | 118° |
| 2026-05-06 13:09 | 35.26790 | 21.55632 | 29127 ft | 510 kts | 118° |
| 2026-05-06 13:09 | 35.23453 | 21.63282 | 29126 ft | 510 kts | 118° |
| 2026-05-06 13:10 | 35.20111 | 21.70926 | 29124 ft | 510 kts | 118° |
| 2026-05-06 13:10 | 35.16777 | 21.78533 | 29125 ft | 510 kts | 119° |
| 2026-05-06 13:11 | 35.13418 | 21.86181 | 29123 ft | 511 kts | 119° |
| 2026-05-06 13:11 | 35.10049 | 21.93834 | 29123 ft | 511 kts | 119° |
| 2026-05-06 13:12 | 35.06674 | 22.01484 | 29122 ft | 512 kts | 119° |
| 2026-05-06 13:12 | 35.03289 | 22.09140 | 29124 ft | 512 kts | 119° |
| 2026-05-06 13:13 | 34.99920 | 22.16740 | 29125 ft | 512 kts | 119° |
| 2026-05-06 13:13 | 34.96528 | 22.24377 | 29125 ft | 512 kts | 119° |
| 2026-05-06 13:14 | 34.93125 | 22.32023 | 29123 ft | 512 kts | 119° |
| 2026-05-06 13:14 | 34.89714 | 22.39666 | 29124 ft | 513 kts | 119° |
| 2026-05-06 13:15 | 34.86305 | 22.47290 | 29127 ft | 513 kts | 119° |
| 2026-05-06 13:15 | 34.82882 | 22.54928 | 29126 ft | 514 kts | 119° |
| 2026-05-06 13:16 | 34.79455 | 22.62558 | 29126 ft | 514 kts | 119° |
| 2026-05-06 13:16 | 34.76038 | 22.70148 | 29120 ft | 514 kts | 119° |
| 2026-05-06 13:17 | 34.72602 | 22.77767 | 29122 ft | 514 kts | 119° |
| 2026-05-06 13:17 | 34.69151 | 22.85397 | 29121 ft | 515 kts | 119° |
| 2026-05-06 13:18 | 34.65695 | 22.93025 | 29124 ft | 516 kts | 119° |
| 2026-05-06 13:18 | 34.62248 | 23.00660 | 29127 ft | 515 kts | 117° |
| 2026-05-06 13:19 | 34.58975 | 23.08422 | 29123 ft | 517 kts | 118° |
| 2026-05-06 13:19 | 34.55672 | 23.16181 | 29122 ft | 517 kts | 117° |
| 2026-05-06 13:20 | 34.52389 | 23.23950 | 29121 ft | 518 kts | 118° |
| 2026-05-06 13:20 | 34.49072 | 23.31714 | 29124 ft | 519 kts | 117° |
| 2026-05-06 13:21 | 34.45764 | 23.39489 | 29129 ft | 519 kts | 118° |
| 2026-05-06 13:21 | 34.42453 | 23.47218 | 29125 ft | 519 kts | 118° |
| 2026-05-06 13:22 | 34.39139 | 23.54960 | 29126 ft | 524 kts | 118° |
| 2026-05-06 13:22 | 34.35741 | 23.62865 | 29124 ft | 532 kts | 118° |
| 2026-05-06 13:23 | 34.32319 | 23.70819 | 29125 ft | 533 kts | 118° |
| 2026-05-06 13:23 | 34.28886 | 23.78774 | 29122 ft | 534 kts | 118° |
| 2026-05-06 13:24 | 34.25444 | 23.86733 | 29124 ft | 534 kts | 118° |
| 2026-05-06 13:24 | 34.21991 | 23.94696 | 29122 ft | 535 kts | 118° |
| 2026-05-06 13:25 | 34.18531 | 24.02661 | 29121 ft | 535 kts | 118° |
| 2026-05-06 13:25 | 34.15061 | 24.10627 | 29125 ft | 536 kts | 118° |
| 2026-05-06 13:26 | 34.11582 | 24.18599 | 29123 ft | 536 kts | 118° |
| 2026-05-06 13:26 | 34.08120 | 24.26510 | 29123 ft | 536 kts | 118° |
| 2026-05-06 13:27 | 34.05586 | 24.32292 | 29115 ft | 536 kts | 118° |
| 2026-05-06 13:27 | 34.02096 | 24.40238 | 29113 ft | 534 kts | 118° |
| 2026-05-06 13:28 | 33.97751 | 24.47419 | 29135 ft | 533 kts | 138° |
| 2026-05-06 13:28 | 33.92231 | 24.53376 | 29120 ft | 533 kts | 140° |
| 2026-05-06 13:29 | 33.86697 | 24.59310 | 29118 ft | 533 kts | 140° |
| 2026-05-06 13:29 | 33.81171 | 24.65253 | 29121 ft | 533 kts | 140° |
| 2026-05-06 13:30 | 33.75639 | 24.71169 | 29119 ft | 532 kts | 140° |
| 2026-05-06 13:30 | 33.70108 | 24.77089 | 29115 ft | 531 kts | 140° |
| 2026-05-06 13:31 | 33.64590 | 24.82974 | 29113 ft | 530 kts | 140° |
| 2026-05-06 13:31 | 33.59076 | 24.88850 | 29110 ft | 530 kts | 140° |
| 2026-05-06 13:32 | 33.53539 | 24.94738 | 29118 ft | 532 kts | 140° |
| 2026-05-06 13:32 | 33.47990 | 25.00629 | 29132 ft | 533 kts | 140° |
| 2026-05-06 13:33 | 33.42468 | 25.06480 | 29130 ft | 533 kts | 140° |
| 2026-05-06 13:33 | 33.36912 | 25.12357 | 29135 ft | 533 kts | 140° |
| 2026-05-06 13:34 | 33.31348 | 25.18233 | 29129 ft | 533 kts | 140° |
| 2026-05-06 13:34 | 33.25779 | 25.24102 | 29133 ft | 533 kts | 140° |
| 2026-05-06 13:35 | 33.20215 | 25.29956 | 29127 ft | 533 kts | 140° |
| 2026-05-06 13:35 | 33.14652 | 25.35799 | 29130 ft | 533 kts | 140° |
| 2026-05-06 13:36 | 33.09084 | 25.41638 | 29115 ft | 532 kts | 140° |
| 2026-05-06 13:36 | 33.05140 | 25.45766 | 29126 ft | 532 kts | 140° |
| 2026-05-06 13:37 | 32.99572 | 25.51587 | 29122 ft | 531 kts | 141° |
| 2026-05-06 13:37 | 32.94056 | 25.57343 | 29116 ft | 531 kts | 141° |
| 2026-05-06 13:38 | 32.90036 | 25.61531 | 29120 ft | 531 kts | 141° |
| 2026-05-06 13:38 | 32.84468 | 25.67324 | 29115 ft | 532 kts | 141° |
| 2026-05-06 13:39 | 32.78892 | 25.73116 | 29117 ft | 532 kts | 141° |
| 2026-05-06 13:39 | 32.74255 | 25.77925 | 29114 ft | 531 kts | 141° |
| 2026-05-06 13:40 | 32.67736 | 25.84672 | 29109 ft | 531 kts | 141° |
| 2026-05-06 13:40 | 32.63105 | 25.89458 | 29121 ft | 531 kts | 141° |
| 2026-05-06 13:41 | 32.57515 | 25.95226 | 29117 ft | 531 kts | 141° |
| 2026-05-06 13:41 | 32.51974 | 26.00934 | 29112 ft | 531 kts | 141° |
| 2026-05-06 13:42 | 32.46399 | 26.06666 | 29120 ft | 531 kts | 141° |
| 2026-05-06 13:42 | 32.40811 | 26.12402 | 29123 ft | 530 kts | 141° |
| 2026-05-06 13:43 | 32.35229 | 26.18122 | 29115 ft | 530 kts | 141° |
| 2026-05-06 13:43 | 32.29658 | 26.23822 | 29116 ft | 530 kts | 141° |
| 2026-05-06 13:44 | 32.24071 | 26.29527 | 29119 ft | 530 kts | 141° |
| 2026-05-06 13:44 | 32.18491 | 26.35217 | 29121 ft | 529 kts | 141° |
| 2026-05-06 13:45 | 32.12933 | 26.40875 | 29125 ft | 531 kts | 141° |
| 2026-05-06 13:45 | 32.04542 | 26.49397 | 29120 ft | 530 kts | 141° |
| 2026-05-06 13:46 | 31.98954 | 26.55061 | 29117 ft | 530 kts | 141° |
| 2026-05-06 13:46 | 31.93364 | 26.60719 | 29124 ft | 530 kts | 141° |
| 2026-05-06 13:47 | 31.87765 | 26.66375 | 29121 ft | 530 kts | 141° |
| 2026-05-06 13:47 | 31.83707 | 26.70469 | 29130 ft | 530 kts | 141° |
| 2026-05-06 13:48 | 31.78140 | 26.76076 | 29130 ft | 531 kts | 141° |
| 2026-05-06 13:48 | 31.72527 | 26.81721 | 29127 ft | 531 kts | 141° |
| 2026-05-06 13:49 | 31.66916 | 26.87354 | 29132 ft | 531 kts | 141° |
| 2026-05-06 13:49 | 31.61304 | 26.92980 | 29136 ft | 531 kts | 141° |
| 2026-05-06 13:50 | 31.55670 | 26.98618 | 29138 ft | 531 kts | 141° |
| 2026-05-06 13:50 | 31.50038 | 27.04245 | 29146 ft | 532 kts | 141° |
| 2026-05-06 13:51 | 31.44408 | 27.09861 | 29151 ft | 532 kts | 141° |
| 2026-05-06 13:51 | 31.38776 | 27.15469 | 29152 ft | 531 kts | 142° |
| 2026-05-06 13:52 | 31.33117 | 27.21048 | 29154 ft | 530 kts | 145° |
| 2026-05-06 13:52 | 31.29997 | 27.23303 | 29166 ft | 527 kts | 156° |
| 2026-05-06 13:52 | 31.26685 | 27.25122 | 29165 ft | 526 kts | 158° |
| 2026-05-06 13:53 | 31.20077 | 27.28689 | 29166 ft | 526 kts | 158° |
| 2026-05-06 13:53 | 31.13446 | 27.32298 | 29160 ft | 525 kts | 158° |
| 2026-05-06 13:54 | 31.06801 | 27.35889 | 29154 ft | 527 kts | 158° |
| 2026-05-06 13:54 | 31.00141 | 27.39492 | 29153 ft | 528 kts | 158° |
| 2026-05-06 13:55 | 30.93530 | 27.43217 | 29140 ft | 528 kts | 150° |
| 2026-05-06 13:55 | 30.87652 | 27.48424 | 29137 ft | 533 kts | 143° |
| 2026-05-06 13:56 | 30.81865 | 27.53821 | 29134 ft | 533 kts | 144° |
| 2026-05-06 13:56 | 30.76056 | 27.59182 | 29134 ft | 533 kts | 144° |
| 2026-05-06 13:57 | 30.70247 | 27.64563 | 29130 ft | 534 kts | 144° |
| 2026-05-06 13:57 | 30.64472 | 27.69888 | 29124 ft | 533 kts | 144° |
| 2026-05-06 13:58 | 30.58647 | 27.75259 | 29115 ft | 534 kts | 144° |
| 2026-05-06 13:58 | 30.52814 | 27.80624 | 29108 ft | 535 kts | 144° |
| 2026-05-06 13:59 | 30.46979 | 27.85985 | 29103 ft | 535 kts | 144° |
| 2026-05-06 13:59 | 30.41367 | 27.91133 | 29097 ft | 534 kts | 144° |
| 2026-05-06 14:00 | 30.35529 | 27.96479 | 29090 ft | 535 kts | 144° |
| 2026-05-06 14:00 | 30.29681 | 28.01826 | 29092 ft | 536 kts | 144° |
| 2026-05-06 14:01 | 30.23823 | 28.07175 | 29083 ft | 536 kts | 144° |
| 2026-05-06 14:01 | 30.17960 | 28.12519 | 29092 ft | 537 kts | 144° |
| 2026-05-06 14:02 | 30.12121 | 28.17833 | 29080 ft | 537 kts | 144° |
| 2026-05-06 14:02 | 30.06257 | 28.23162 | 29080 ft | 537 kts | 144° |
| 2026-05-06 14:03 | 30.00387 | 28.28487 | 29074 ft | 536 kts | 145° |
| 2026-05-06 14:03 | 29.94520 | 28.33803 | 29076 ft | 536 kts | 145° |
| 2026-05-06 14:04 | 29.88654 | 28.39109 | 29074 ft | 536 kts | 144° |
| 2026-05-06 14:04 | 29.83561 | 28.45432 | 29083 ft | 542 kts | 130° |
| 2026-05-06 14:05 | 29.81172 | 28.49008 | 29081 ft | 543 kts | 130° |
| 2026-05-06 14:05 | 29.76784 | 28.55596 | 29081 ft | 544 kts | 130° |
| 2026-05-06 14:06 | 29.72152 | 28.62479 | 29075 ft | 544 kts | 130° |
| 2026-05-06 14:06 | 29.67532 | 28.69372 | 29076 ft | 544 kts | 130° |
| 2026-05-06 14:07 | 29.62888 | 28.76263 | 29075 ft | 545 kts | 130° |
| 2026-05-06 14:07 | 29.58256 | 28.83147 | 29073 ft | 545 kts | 130° |
| 2026-05-06 14:08 | 29.53609 | 28.90030 | 29072 ft | 545 kts | 130° |
| 2026-05-06 14:08 | 29.48990 | 28.96866 | 29065 ft | 545 kts | 130° |
| 2026-05-06 14:09 | 29.44502 | 29.03889 | 29083 ft | 548 kts | 121° |
| 2026-05-06 14:09 | 29.42916 | 29.07875 | 29071 ft | 552 kts | 110° |
| 2026-05-06 14:09 | 29.41959 | 29.12140 | 29092 ft | 554 kts | 99° |
| 2026-05-06 14:10 | 29.41588 | 29.20978 | 29076 ft | 555 kts | 91° |
| 2026-05-06 14:10 | 29.41514 | 29.29832 | 29077 ft | 555 kts | 91° |
| 2026-05-06 14:11 | 29.41390 | 29.38682 | 29075 ft | 555 kts | 91° |
| 2026-05-06 14:11 | 29.41284 | 29.47539 | 29071 ft | 555 kts | 91° |
| 2026-05-06 14:12 | 29.41160 | 29.56345 | 29082 ft | 555 kts | 91° |
| 2026-05-06 14:12 | 29.41036 | 29.65197 | 29078 ft | 555 kts | 91° |
| 2026-05-06 14:13 | 29.40903 | 29.74052 | 29082 ft | 556 kts | 91° |
| 2026-05-06 14:13 | 29.40765 | 29.82910 | 29074 ft | 556 kts | 91° |
| 2026-05-06 14:14 | 29.40622 | 29.91773 | 29074 ft | 555 kts | 91° |
| 2026-05-06 14:14 | 29.40472 | 30.00629 | 29078 ft | 555 kts | 91° |
| 2026-05-06 14:15 | 29.40317 | 30.09493 | 29073 ft | 555 kts | 91° |
| 2026-05-06 14:15 | 29.40155 | 30.18355 | 29075 ft | 556 kts | 91° |
| 2026-05-06 14:16 | 29.39988 | 30.27216 | 29071 ft | 556 kts | 91° |
| 2026-05-06 14:16 | 29.39815 | 30.36079 | 29073 ft | 556 kts | 91° |
| 2026-05-06 14:17 | 29.39814 | 30.44936 | 29071 ft | 555 kts | 90° |
| 2026-05-06 14:17 | 29.39786 | 30.53751 | 29069 ft | 555 kts | 89° |
| 2026-05-06 14:18 | 29.39818 | 30.58110 | 29052 ft | 536 kts | 89° |
| 2026-05-06 14:18 | 29.39849 | 30.62295 | 29055 ft | 513 kts | 89° |
| 2026-05-06 14:18 | 29.39854 | 30.66303 | 29052 ft | 492 kts | 90° |
| 2026-05-06 14:18 | 29.39851 | 30.70154 | 28971 ft | 475 kts | 90° |
| 2026-05-06 14:19 | 29.39861 | 30.73902 | 28548 ft | 467 kts | 89° |
| 2026-05-06 14:19 | 29.39875 | 30.77625 | 27945 ft | 464 kts | 90° |
| 2026-05-06 14:19 | 29.39882 | 30.81304 | 27326 ft | 461 kts | 90° |
| 2026-05-06 14:19 | 29.39883 | 30.84986 | 26600 ft | 460 kts | 90° |
| 2026-05-06 14:20 | 29.39886 | 30.88658 | 25873 ft | 460 kts | 90° |
| 2026-05-06 14:20 | 29.39891 | 30.92329 | 25168 ft | 459 kts | 90° |
| 2026-05-06 14:20 | 29.39893 | 30.95991 | 24474 ft | 458 kts | 90° |
| 2026-05-06 14:20 | 29.39893 | 30.99633 | 23803 ft | 456 kts | 90° |
| 2026-05-06 14:21 | 29.39893 | 31.03270 | 23032 ft | 454 kts | 90° |
| 2026-05-06 14:21 | 29.39892 | 31.06830 | 22264 ft | 452 kts | 90° |
| 2026-05-06 14:21 | 29.39890 | 31.10429 | 21508 ft | 450 kts | 90° |
| 2026-05-06 14:21 | 29.39887 | 31.14015 | 20785 ft | 450 kts | 90° |
| 2026-05-06 14:22 | 29.39906 | 31.17616 | 20109 ft | 450 kts | 89° |
| 2026-05-06 14:22 | 29.39912 | 31.21216 | 19301 ft | 451 kts | 91° |
| 2026-05-06 14:22 | 29.39871 | 31.24795 | 18591 ft | 445 kts | 90° |
| 2026-05-06 14:22 | 29.39978 | 31.28303 | 17834 ft | 429 kts | 86° |
| 2026-05-06 14:23 | 29.40181 | 31.31687 | 17081 ft | 423 kts | 85° |
| 2026-05-06 14:23 | 29.40417 | 31.35036 | 16328 ft | 419 kts | 85° |
| 2026-05-06 14:23 | 29.40665 | 31.38350 | 15610 ft | 415 kts | 85° |
| 2026-05-06 14:23 | 29.40915 | 31.41623 | 14901 ft | 410 kts | 84° |
| 2026-05-06 14:24 | 29.41081 | 31.43774 | 14438 ft | 407 kts | 84° |
| 2026-05-06 14:24 | 29.41328 | 31.46990 | 13741 ft | 403 kts | 84° |
| 2026-05-06 14:24 | 29.41577 | 31.50170 | 12982 ft | 397 kts | 83° |
| 2026-05-06 14:24 | 29.42279 | 31.53142 | 12226 ft | 370 kts | 62° |
| 2026-05-06 14:25 | 29.43720 | 31.55381 | 11517 ft | 334 kts | 37° |
| 2026-05-06 14:25 | 29.45658 | 31.56560 | 10818 ft | 303 kts | 8° |
| 2026-05-06 14:25 | 29.47695 | 31.56452 | 10229 ft | 292 kts | 338° |
| 2026-05-06 14:25 | 29.49463 | 31.55466 | 10082 ft | 277 kts | 328° |
| 2026-05-06 14:26 | 29.51116 | 31.54282 | 9818 ft | 284 kts | 326° |
| 2026-05-06 14:26 | 29.52763 | 31.53030 | 9444 ft | 282 kts | 325° |
| 2026-05-06 14:26 | 29.54374 | 31.51782 | 9046 ft | 278 kts | 325° |
| 2026-05-06 14:26 | 29.55964 | 31.50537 | 8677 ft | 276 kts | 325° |
| 2026-05-06 14:27 | 29.57540 | 31.49292 | 8302 ft | 273 kts | 324° |
| 2026-05-06 14:27 | 29.59104 | 31.48049 | 7940 ft | 272 kts | 324° |
| 2026-05-06 14:27 | 29.60649 | 31.46809 | 7562 ft | 270 kts | 325° |
| 2026-05-06 14:27 | 29.62182 | 31.45566 | 7199 ft | 269 kts | 325° |
| 2026-05-06 14:28 | 29.63694 | 31.44324 | 6830 ft | 266 kts | 325° |
| 2026-05-06 14:28 | 29.65194 | 31.43076 | 6466 ft | 265 kts | 324° |
| 2026-05-06 14:28 | 29.66678 | 31.41829 | 6084 ft | 263 kts | 324° |
| 2026-05-06 14:28 | 29.68154 | 31.40576 | 5714 ft | 263 kts | 324° |
| 2026-05-06 14:29 | 29.69607 | 31.39334 | 5339 ft | 254 kts | 324° |
| 2026-05-06 14:29 | 29.70957 | 31.38167 | 4920 ft | 232 kts | 324° |
| 2026-05-06 14:29 | 29.72247 | 31.37046 | 4510 ft | 240 kts | 324° |
| 2026-05-06 14:29 | 29.73561 | 31.35908 | 4181 ft | 234 kts | 324° |
| 2026-05-06 14:30 | 29.74870 | 31.34776 | 3815 ft | 235 kts | 324° |
| 2026-05-06 14:30 | 29.76159 | 31.33662 | 3513 ft | 232 kts | 324° |
| 2026-05-06 14:30 | 29.77458 | 31.32537 | 3508 ft | 231 kts | 324° |
| 2026-05-06 14:30 | 29.78743 | 31.31425 | 3501 ft | 235 kts | 324° |
| 2026-05-06 14:31 | 29.80047 | 31.30295 | 3496 ft | 235 kts | 324° |
| 2026-05-06 14:31 | 29.81352 | 31.29162 | 3496 ft | 234 kts | 324° |
| 2026-05-06 14:31 | 29.82727 | 31.28149 | 3280 ft | 236 kts | 341° |
| 2026-05-06 14:31 | 29.84334 | 31.28090 | 3052 ft | 230 kts | 6° |
| 2026-05-06 14:32 | 29.85929 | 31.27953 | 2838 ft | 232 kts | 348° |
| 2026-05-06 14:32 | 29.87475 | 31.27479 | 2688 ft | 226 kts | 345° |
| 2026-05-06 14:32 | 29.88992 | 31.26982 | 2695 ft | 232 kts | 344° |
| 2026-05-06 14:32 | 29.90531 | 31.26478 | 2694 ft | 228 kts | 345° |
| 2026-05-06 14:33 | 29.92058 | 31.25985 | 2673 ft | 228 kts | 345° |
| 2026-05-06 14:33 | 29.93606 | 31.25642 | 2678 ft | 230 kts | 1° |
| 2026-05-06 14:33 | 29.95185 | 31.25962 | 2688 ft | 237 kts | 11° |
| 2026-05-06 14:33 | 29.96850 | 31.26326 | 2703 ft | 237 kts | 10° |
| 2026-05-06 14:34 | 29.98361 | 31.26892 | 2675 ft | 223 kts | 25° |
| 2026-05-06 14:34 | 29.99482 | 31.28041 | 2657 ft | 216 kts | 54° |
| 2026-05-06 14:34 | 30.00347 | 31.29420 | 2665 ft | 215 kts | 46° |
| 2026-05-06 14:34 | 30.01340 | 31.30731 | 2687 ft | 215 kts | 47° |
| 2026-05-06 14:35 | 30.02259 | 31.31962 | 2635 ft | 183 kts | 47° |
| 2026-05-06 14:35 | 30.03030 | 31.32994 | 2512 ft | 187 kts | 47° |
| 2026-05-06 14:35 | 30.03862 | 31.34111 | 2224 ft | 175 kts | 46° |
| 2026-05-06 14:35 | 30.04620 | 31.35110 | 1991 ft | 161 kts | 46° |
| 2026-05-06 14:36 | 30.05264 | 31.35968 | 1801 ft | 155 kts | 46° |
| 2026-05-06 14:36 | 30.05960 | 31.36900 | 1616 ft | 152 kts | 46° |
| 2026-05-06 14:36 | 30.06657 | 31.37830 | 1412 ft | 153 kts | 45° |
| 2026-05-06 14:36 | 30.07359 | 31.38764 | 1180 ft | 149 kts | 46° |
| 2026-05-06 14:37 | 30.08005 | 31.39635 | 1006 ft | 144 kts | 45° |
| 2026-05-06 14:37 | 30.08661 | 31.40506 | 806 ft | 140 kts | 46° |
| 2026-05-06 14:37 | 30.09309 | 31.41378 | 633 ft | 146 kts | 45° |
| 2026-05-06 14:37 | 30.09967 | 31.42239 | 463 ft | 134 kts | 47° |
| 2026-05-06 14:38 | 30.10419 | 31.42842 | 466 ft | 73 kts | 49° |
| 2026-05-06 14:38 | 30.10726 | 31.43253 | 468 ft | 62 kts | 50° |
| 2026-05-06 14:38 | 30.11037 | 31.43541 | 465 ft | 53 kts | 24° |
| 2026-05-06 14:38 | 30.11181 | 31.43596 | 459 ft | 1 kts | 340° |
| 2026-05-06 14:39 | 30.11203 | 31.43585 | 458 ft | 4 kts | 336° |
| 2026-05-06 14:39 | 30.11228 | 31.43573 | 456 ft | 2 kts | 336° |
| 2026-05-06 14:39 | 30.11247 | 31.43543 | 454 ft | 20 kts | 296° |
| 2026-05-06 14:39 | 30.11263 | 31.43410 | 449 ft | 14 kts | 308° |
| 2026-05-06 14:40 | 30.11393 | 31.43278 | 427 ft | 30 kts | 320° |
| 2026-05-06 14:40 | 30.11561 | 31.43116 | 413 ft | 33 kts | 320° |
| 2026-05-06 14:40 | 30.11745 | 31.42931 | 410 ft | 37 kts | 318° |
| 2026-05-06 14:40 | 30.11944 | 31.42730 | 393 ft | 39 kts | 320° |
| 2026-05-06 14:41 | 30.12131 | 31.42541 | 383 ft | 29 kts | 319° |
| 2026-05-06 14:41 | 30.12198 | 31.42413 | 375 ft | 12 kts | 253° |
| 2026-05-06 14:41 | 30.12089 | 31.42255 | 379 ft | 33 kts | 229° |
| 2026-05-06 14:41 | 30.11940 | 31.42057 | 377 ft | 32 kts | 229° |
| 2026-05-06 14:42 | 30.11792 | 31.41860 | 380 ft | 32 kts | 229° |
| 2026-05-06 14:42 | 30.11649 | 31.41662 | 375 ft | 32 kts | 229° |
| 2026-05-06 14:42 | 30.11503 | 31.41470 | 380 ft | 32 kts | 229° |
| 2026-05-06 14:42 | 30.11415 | 31.41257 | 376 ft | 30 kts | 271° |
| 2026-05-06 14:43 | 30.11316 | 31.41061 | 375 ft | 29 kts | 229° |
| 2026-05-06 14:43 | 30.11184 | 31.40885 | 376 ft | 29 kts | 230° |
| 2026-05-06 14:43 | 30.11054 | 31.40708 | 372 ft | 29 kts | 230° |
| 2026-05-06 14:43 | 30.11030 | 31.40615 | 373 ft | 5 kts | 320° |
| 2026-05-06 14:44 | 30.11135 | 31.40524 | 363 ft | 23 kts | 322° |
| 2026-05-06 14:44 | 30.11165 | 31.40465 | 361 ft | 2 kts | 248° |
| 2026-05-06 14:44 | 30.11147 | 31.40450 | 363 ft | 2 kts | 203° |
| 2026-05-06 14:45 | 30.11144 | 31.40448 | 362 ft | 0 kts | 203° |